Site contains unofficial IBTrACS data. Visit the IBTrACS Website to access archived data.

1861 Hurricane NOT_NAMED (1861266N20269)


IBTrACS version v04r00. Visit IBTrACS website for data access.
Please direct all questions to the IBTrACS Q and A forum

Storm track - Intensity - Wind Radii - Intensity Data - Source Data - All data

Summary Information

Storm ID 1861266N20269
Start Sep 22 12Z
Landfall Sep 27 09Z
Max Intensity 70 kt (Sep 26 18Z), 989 mb (Sep 27 06Z)
End Sep 29 00Z
ATCF IDs
Track status Best track data.

Storm track plot

Map of storm track

Intensity plots

Map of storm track

Radial wind information

No radial wind information for this storm


Position and Intensity Table

BASIN ISO_TIME_________ NATURE LAT LON MLC WIND MLC PRES
degrees north degrees east kts mb
NA 1861-09-22 12:00:00 TS 20.00 -91.50 30
NA 15:00:00 TS 20.10 -91.51 30
NA 18:00:00 TS 20.20 -91.50 30
NA 21:00:00 TS 20.30 -91.45 30
NA 1861-09-23 00:00:00 TS 20.40 -91.40 30
NA 03:00:00 TS 20.50 -91.40 30
NA 06:00:00 TS 20.60 -91.40 30
NA 09:00:00 TS 20.69 -91.35 32
NA 12:00:00 TS 20.80 -91.30 35
NA 15:00:00 TS 20.98 -91.30 35
NA 18:00:00 TS 21.20 -91.30 35
NA 21:00:00 TS 21.39 -91.25 37
NA 1861-09-24 00:00:00 TS 21.60 -91.20 40
NA 03:00:00 TS 21.85 -91.19 40
NA 06:00:00 TS 22.10 -91.20 40
NA 09:00:00 TS 22.30 -91.21 42
NA 12:00:00 TS 22.50 -91.20 45
NA 15:00:00 TS 22.74 -91.12 45
NA 18:00:00 TS 23.00 -91.00 45
NA 21:00:00 TS 23.25 -90.85 45
NA 1861-09-25 00:00:00 TS 23.50 -90.70 45
NA 03:00:00 TS 23.75 -90.59 47
NA 06:00:00 TS 24.00 -90.50 50
NA 09:00:00 TS 24.23 -90.41 50
NA 12:00:00 TS 24.50 -90.30 50
NA 15:00:00 TS 24.84 -90.12 50
NA 18:00:00 TS 25.20 -89.90 50
NA 21:00:00 TS 25.51 -89.70 52
NA 1861-09-26 00:00:00 TS 25.80 -89.50 55
NA 03:00:00 TS 26.10 -89.30 57
NA 06:00:00 TS 26.40 -89.10 60
NA 09:00:00 TS 26.69 -88.94 60
NA 12:00:00 TS 27.00 -88.70 60
NA 15:00:00 TS 27.34 -88.29 65
NA 18:00:00 TS 27.70 -87.80 70
NA 21:00:00 TS 28.04 -87.35 70
NA 1861-09-27 00:00:00 TS 28.40 -86.90 70
NA 03:00:00 TS 28.63 -86.69 70
NA 06:00:00 TS 29.20 -86.00 70 989
NA 09:00:00 TS 30.49 -84.08 65
NA 12:00:00 TS 32.10 -81.80 60
NA 15:00:00 TS 33.59 -79.97 60
NA 18:00:00 TS 35.20 -78.60 60
NA 21:00:00 TS 37.02 -77.89 60
NA 1861-09-28 00:00:00 TS 38.90 -77.50 60
NA 03:00:00 TS 40.67 -76.91 55
NA 06:00:00 TS 42.30 -76.30 50
NA 09:00:00 TS 43.73 -75.70 50
NA 12:00:00 ET 45.00 -75.00 50
NA 15:00:00 ET 46.03 -74.24 45
NA 18:00:00 ET 47.30 -73.00 40
NA 21:00:00 ET 49.22 -70.86 40
NA 1861-09-29 00:00:00 ET 51.50 -68.00 40

Source Information

Agency Information
USA
TOKYO
CMA
HKO
NEWDELHI
REUNION
BOM
NADI
WELLINGTON
DS824
TD9636
TD9635
NEUMANN
MLC

All available IBTrACS Data

SEASON BASIN SUBBASIN ISO_TIME_________ NATURE LAT LON DIST2LAND LANDFALL IFLAG USA SSHS MLC LAT MLC LON MLC CLASS MLC WIND MLC PRES STORM SPEED STORM DIR
Year degrees north degrees east km km 1 degrees north degrees east kts mb kts degrees
1861 NA GM 1861-09-22 12:00:00 TS 20.00 -91.50 90 90 _____________O -1 20.00 -91.50 TD 30 2 0
1861 NA GM 15:00:00 TS 20.10 -91.51 94 94 _____________P -1 20.10 -91.51 TD 30 2 8
1861 NA GM 18:00:00 TS 20.20 -91.50 100 100 _____________O -1 20.20 -91.50 TD 30 2 17
1861 NA GM 21:00:00 TS 20.30 -91.45 104 93 _____________P -1 20.30 -91.45 TD 30 2 27
1861 NA GM 1861-09-23 00:00:00 TS 20.40 -91.40 93 93 _____________O -1 20.40 -91.40 TD 30 2 13
1861 NA GM 03:00:00 TS 20.50 -91.40 93 93 _____________P -1 20.50 -91.40 TD 30 2 8
1861 NA GM 06:00:00 TS 20.60 -91.40 94 94 _____________O -1 20.60 -91.40 TD 30 2 13
1861 NA GM 09:00:00 TS 20.69 -91.35 96 86 _____________P -1 20.69 -91.35 TD 32 2 27
1861 NA GM 12:00:00 TS 20.80 -91.30 89 89 _____________O -1 20.80 -91.30 TS 35 3 5
1861 NA GM 15:00:00 TS 20.98 -91.30 96 96 _____________P -1 20.98 -91.30 TS 35 4 0
1861 NA GM 18:00:00 TS 21.20 -91.30 103 103 _____________O -1 21.20 -91.30 TS 35 4 5
1861 NA GM 21:00:00 TS 21.39 -91.25 108 99 _____________P -1 21.39 -91.25 TS 37 4 13
1861 NA GM 1861-09-24 00:00:00 TS 21.60 -91.20 108 108 _____________O -1 21.60 -91.20 TS 40 5 7
1861 NA GM 03:00:00 TS 21.85 -91.19 129 121 _____________P -1 21.85 -91.19 TS 40 5 2
1861 NA GM 06:00:00 TS 22.10 -91.20 145 145 _____________O -1 22.10 -91.20 TS 40 5 0
1861 NA GM 09:00:00 TS 22.30 -91.21 163 163 _____________P -1 22.30 -91.21 TS 42 4 0
1861 NA GM 12:00:00 TS 22.50 -91.20 182 182 _____________O -1 22.50 -91.20 TS 45 5 11
1861 NA GM 15:00:00 TS 22.74 -91.12 197 197 _____________P -1 22.74 -91.12 TS 45 5 20
1861 NA GM 18:00:00 TS 23.00 -91.00 224 224 _____________O -1 23.00 -91.00 TS 45 6 26
1861 NA GM 21:00:00 TS 23.25 -90.85 253 251 _____________P -1 23.25 -90.85 TS 45 6 29
1861 NA GM 1861-09-25 00:00:00 TS 23.50 -90.70 269 269 _____________O -1 23.50 -90.70 TS 45 6 25
1861 NA GM 03:00:00 TS 23.75 -90.59 288 288 _____________P -1 23.75 -90.59 TS 47 5 20
1861 NA GM 06:00:00 TS 24.00 -90.50 319 319 _____________O -1 24.00 -90.50 TS 50 5 18
1861 NA GM 09:00:00 TS 24.23 -90.41 339 339 _____________P -1 24.23 -90.41 TS 50 5 20
1861 NA GM 12:00:00 TS 24.50 -90.30 371 371 _____________O -1 24.50 -90.30 TS 50 7 24
1861 NA GM 15:00:00 TS 24.84 -90.12 399 399 _____________P -1 24.84 -90.12 TS 50 8 27
1861 NA GM 18:00:00 TS 25.20 -89.90 431 395 _____________O -1 25.20 -89.90 TS 50 8 29
1861 NA GM 21:00:00 TS 25.51 -89.70 395 359 _____________P -1 25.51 -89.70 TS 52 7 31
1861 NA GM 1861-09-26 00:00:00 TS 25.80 -89.50 359 324 _____________O -1 25.80 -89.50 TS 55 7 31
1861 NA GM 03:00:00 TS 26.10 -89.30 324 290 _____________P -1 26.10 -89.30 TS 57 7 31
1861 NA GM 06:00:00 TS 26.40 -89.10 290 257 _____________O -1 26.40 -89.10 TS 60 7 29
1861 NA GM 09:00:00 TS 26.69 -88.94 257 226 _____________P -1 26.69 -88.94 TS 60 7 31
1861 NA GM 12:00:00 TS 27.00 -88.70 226 201 _____________O -1 27.00 -88.70 TS 60 9 42
1861 NA GM 15:00:00 TS 27.34 -88.29 205 186 _____________P -1 27.34 -88.29 TS 65 11 49
1861 NA GM 18:00:00 TS 27.70 -87.80 192 191 _____________O -1 27.70 -87.80 HU 70 11 50
1861 NA GM 21:00:00 TS 28.04 -87.35 206 199 _____________P -1 28.04 -87.35 HU 70 11 49
1861 NA GM 1861-09-27 00:00:00 TS 28.40 -86.90 205 175 _____________O -1 28.40 -86.90 HU 70 8 45
1861 NA GM 03:00:00 TS 28.63 -86.69 175 95 _____________P -1 28.63 -86.69 HU 70 11 45
1861 NA GM 06:00:00 TS 29.20 -86.00 80 0 _____________O -1 29.20 -86.00 HU 70 989 29 51
1861 NA NA 09:00:00 TS 30.49 -84.08 0 0 _____________P -1 30.49 -84.08 HU 65 46 51
1861 NA NA 12:00:00 TS 32.10 -81.80 0 0 _____________O -1 32.10 -81.80 TS 60 47 48
1861 NA NA 15:00:00 TS 33.59 -79.97 0 0 _____________P -1 33.59 -79.97 TS 60 41 41
1861 NA NA 18:00:00 TS 35.20 -78.60 0 0 _____________O -1 35.20 -78.60 TS 60 38 26
1861 NA NA 21:00:00 TS 37.02 -77.89 0 0 _____________P -1 37.02 -77.89 TS 60 38 13
1861 NA NA 1861-09-28 00:00:00 TS 38.90 -77.50 0 0 _____________O -1 38.90 -77.50 TS 60 37 12
1861 NA NA 03:00:00 TS 40.67 -76.91 0 0 _____________P -1 40.67 -76.91 TS 55 35 15
1861 NA NA 06:00:00 TS 42.30 -76.30 0 0 _____________O -1 42.30 -76.30 TS 50 32 16
1861 NA NA 09:00:00 TS 43.73 -75.70 0 0 _____________P -1 43.73 -75.70 TS 50 29 19
1861 NA NA 12:00:00 ET 45.00 -75.00 0 0 _____________O -1 45.00 -75.00 EX 50 25 24
1861 NA NA 15:00:00 ET 46.03 -74.24 0 0 _____________P -1 46.03 -74.24 EX 45 27 31
1861 NA NA 18:00:00 ET 47.30 -73.00 0 0 _____________O -1 47.30 -73.00 EX 40 39 36
1861 NA NA 21:00:00 ET 49.22 -70.86 0 0 _____________P -1 49.22 -70.86 EX 40 53 38
1861 NA NA 1861-09-29 00:00:00 ET 51.50 -68.00 0 _____________O -1 51.50 -68.00 EX 40 58 38